sensor_id;sensor_type;location;lat;lon;timestamp;P1;durP1;ratioP1;P2;durP2;ratioP2
9072;SDS011;4572;41.642;25.370;2023-04-06T00:00:05;6.87;;;2.73;;
9072;SDS011;4572;41.642;25.370;2023-04-06T00:02:33;3.33;;;2.53;;
9072;SDS011;4572;41.642;25.370;2023-04-06T00:04:59;2.63;;;2.30;;
9072;SDS011;4572;41.642;25.370;2023-04-06T00:07:25;2.67;;;2.47;;
9072;SDS011;4572;41.642;25.370;2023-04-06T00:09:51;3.93;;;2.50;;
9072;SDS011;4572;41.642;25.370;2023-04-06T00:12:16;2.40;;;2.20;;
9072;SDS011;4572;41.642;25.370;2023-04-06T00:14:42;2.70;;;2.27;;
9072;SDS011;4572;41.642;25.370;2023-04-06T00:17:07;2.90;;;2.17;;
9072;SDS011;4572;41.642;25.370;2023-04-06T00:19:33;4.10;;;2.70;;
9072;SDS011;4572;41.642;25.370;2023-04-06T00:21:59;3.27;;;2.43;;
9072;SDS011;4572;41.642;25.370;2023-04-06T00:24:24;3.60;;;2.47;;
9072;SDS011;4572;41.642;25.370;2023-04-06T00:26:50;3.17;;;2.73;;
9072;SDS011;4572;41.642;25.370;2023-04-06T00:29:15;4.90;;;3.10;;
9072;SDS011;4572;41.642;25.370;2023-04-06T00:31:40;2.77;;;2.30;;
9072;SDS011;4572;41.642;25.370;2023-04-06T00:34:06;4.10;;;3.33;;
9072;SDS011;4572;41.642;25.370;2023-04-06T00:36:31;4.27;;;3.30;;
9072;SDS011;4572;41.642;25.370;2023-04-06T00:38:57;3.03;;;2.73;;
9072;SDS011;4572;41.642;25.370;2023-04-06T00:41:22;3.87;;;3.07;;
9072;SDS011;4572;41.642;25.370;2023-04-06T00:43:48;4.73;;;3.10;;
9072;SDS011;4572;41.642;25.370;2023-04-06T00:46:14;3.13;;;2.83;;
9072;SDS011;4572;41.642;25.370;2023-04-06T00:48:39;4.53;;;3.00;;
9072;SDS011;4572;41.642;25.370;2023-04-06T00:51:05;2.93;;;2.60;;
9072;SDS011;4572;41.642;25.370;2023-04-06T00:53:31;4.70;;;3.40;;
9072;SDS011;4572;41.642;25.370;2023-04-06T00:55:56;3.83;;;3.10;;
9072;SDS011;4572;41.642;25.370;2023-04-06T00:58:22;4.97;;;3.27;;
9072;SDS011;4572;41.642;25.370;2023-04-06T01:00:48;4.17;;;3.37;;
9072;SDS011;4572;41.642;25.370;2023-04-06T01:03:14;2.77;;;2.57;;
9072;SDS011;4572;41.642;25.370;2023-04-06T01:05:40;3.73;;;3.10;;
9072;SDS011;4572;41.642;25.370;2023-04-06T01:08:06;3.67;;;3.10;;
9072;SDS011;4572;41.642;25.370;2023-04-06T01:10:32;4.63;;;3.50;;
9072;SDS011;4572;41.642;25.370;2023-04-06T01:12:58;4.07;;;3.20;;
9072;SDS011;4572;41.642;25.370;2023-04-06T01:15:23;3.57;;;3.27;;
9072;SDS011;4572;41.642;25.370;2023-04-06T01:17:49;5.30;;;3.43;;
9072;SDS011;4572;41.642;25.370;2023-04-06T01:20:14;3.23;;;2.93;;
9072;SDS011;4572;41.642;25.370;2023-04-06T01:22:40;4.50;;;3.03;;
9072;SDS011;4572;41.642;25.370;2023-04-06T01:25:06;3.70;;;3.07;;
9072;SDS011;4572;41.642;25.370;2023-04-06T01:27:32;4.73;;;3.70;;
9072;SDS011;4572;41.642;25.370;2023-04-06T01:29:58;3.47;;;3.00;;
9072;SDS011;4572;41.642;25.370;2023-04-06T01:32:24;4.20;;;3.20;;
9072;SDS011;4572;41.642;25.370;2023-04-06T01:34:49;4.13;;;3.33;;
9072;SDS011;4572;41.642;25.370;2023-04-06T01:37:15;4.97;;;3.53;;
9072;SDS011;4572;41.642;25.370;2023-04-06T01:39:42;4.20;;;3.53;;
9072;SDS011;4572;41.642;25.370;2023-04-06T01:42:08;4.17;;;3.57;;
9072;SDS011;4572;41.642;25.370;2023-04-06T01:44:34;4.70;;;3.63;;
9072;SDS011;4572;41.642;25.370;2023-04-06T01:46:59;4.87;;;3.43;;
9072;SDS011;4572;41.642;25.370;2023-04-06T01:49:25;3.97;;;3.57;;
9072;SDS011;4572;41.642;25.370;2023-04-06T01:51:50;3.90;;;3.40;;
9072;SDS011;4572;41.642;25.370;2023-04-06T01:54:16;4.33;;;3.50;;
9072;SDS011;4572;41.642;25.370;2023-04-06T01:56:42;4.20;;;3.80;;
9072;SDS011;4572;41.642;25.370;2023-04-06T01:59:07;5.10;;;3.47;;
9072;SDS011;4572;41.642;25.370;2023-04-06T02:01:33;6.83;;;3.50;;
9072;SDS011;4572;41.642;25.370;2023-04-06T02:03:58;5.00;;;3.73;;
9072;SDS011;4572;41.642;25.370;2023-04-06T02:06:25;4.93;;;3.53;;
9072;SDS011;4572;41.642;25.370;2023-04-06T02:08:55;3.47;;;3.00;;
9072;SDS011;4572;41.642;25.370;2023-04-06T02:11:22;3.83;;;3.37;;
9072;SDS011;4572;41.642;25.370;2023-04-06T02:13:47;6.87;;;4.00;;
9072;SDS011;4572;41.642;25.370;2023-04-06T02:16:13;5.20;;;3.90;;
9072;SDS011;4572;41.642;25.370;2023-04-06T02:18:38;5.27;;;3.60;;
9072;SDS011;4572;41.642;25.370;2023-04-06T02:21:03;7.93;;;4.13;;
9072;SDS011;4572;41.642;25.370;2023-04-06T02:23:29;4.10;;;3.37;;
9072;SDS011;4572;41.642;25.370;2023-04-06T02:25:55;5.43;;;3.80;;
9072;SDS011;4572;41.642;25.370;2023-04-06T02:28:20;4.90;;;3.87;;
9072;SDS011;4572;41.642;25.370;2023-04-06T02:30:46;5.30;;;3.80;;
9072;SDS011;4572;41.642;25.370;2023-04-06T02:33:11;3.83;;;3.43;;
9072;SDS011;4572;41.642;25.370;2023-04-06T02:35:37;6.20;;;3.83;;
9072;SDS011;4572;41.642;25.370;2023-04-06T02:38:02;4.27;;;3.70;;
9072;SDS011;4572;41.642;25.370;2023-04-06T02:40:28;5.03;;;3.73;;
9072;SDS011;4572;41.642;25.370;2023-04-06T02:42:53;5.00;;;3.70;;
9072;SDS011;4572;41.642;25.370;2023-04-06T02:45:18;4.93;;;3.77;;
9072;SDS011;4572;41.642;25.370;2023-04-06T02:47:45;7.40;;;4.13;;
9072;SDS011;4572;41.642;25.370;2023-04-06T02:50:10;7.13;;;4.07;;
9072;SDS011;4572;41.642;25.370;2023-04-06T02:52:36;5.07;;;4.33;;
9072;SDS011;4572;41.642;25.370;2023-04-06T02:55:02;5.40;;;4.23;;
9072;SDS011;4572;41.642;25.370;2023-04-06T02:57:27;4.83;;;3.83;;
9072;SDS011;4572;41.642;25.370;2023-04-06T02:59:53;7.30;;;4.27;;
9072;SDS011;4572;41.642;25.370;2023-04-06T03:02:18;7.33;;;4.43;;
9072;SDS011;4572;41.642;25.370;2023-04-06T03:04:44;4.63;;;3.90;;
9072;SDS011;4572;41.642;25.370;2023-04-06T03:07:10;8.07;;;3.80;;
9072;SDS011;4572;41.642;25.370;2023-04-06T03:09:38;5.90;;;4.53;;
9072;SDS011;4572;41.642;25.370;2023-04-06T03:12:04;4.60;;;3.90;;
9072;SDS011;4572;41.642;25.370;2023-04-06T03:14:30;5.53;;;3.80;;
9072;SDS011;4572;41.642;25.370;2023-04-06T03:16:55;5.57;;;4.10;;
9072;SDS011;4572;41.642;25.370;2023-04-06T03:19:21;5.10;;;3.80;;
9072;SDS011;4572;41.642;25.370;2023-04-06T03:21:46;5.50;;;3.90;;
9072;SDS011;4572;41.642;25.370;2023-04-06T03:24:12;8.10;;;4.70;;
9072;SDS011;4572;41.642;25.370;2023-04-06T03:26:38;6.80;;;3.83;;
9072;SDS011;4572;41.642;25.370;2023-04-06T03:29:04;4.83;;;3.80;;
9072;SDS011;4572;41.642;25.370;2023-04-06T03:31:30;3.63;;;3.30;;
9072;SDS011;4572;41.642;25.370;2023-04-06T03:33:55;3.90;;;2.90;;
9072;SDS011;4572;41.642;25.370;2023-04-06T03:36:21;5.17;;;3.30;;
9072;SDS011;4572;41.642;25.370;2023-04-06T03:38:46;4.63;;;3.07;;
9072;SDS011;4572;41.642;25.370;2023-04-06T03:41:12;4.10;;;3.60;;
9072;SDS011;4572;41.642;25.370;2023-04-06T03:43:37;5.93;;;4.00;;
9072;SDS011;4572;41.642;25.370;2023-04-06T03:46:03;6.77;;;5.03;;
9072;SDS011;4572;41.642;25.370;2023-04-06T03:48:28;6.70;;;5.00;;
9072;SDS011;4572;41.642;25.370;2023-04-06T03:50:54;7.23;;;4.33;;
9072;SDS011;4572;41.642;25.370;2023-04-06T03:53:20;6.70;;;4.57;;
9072;SDS011;4572;41.642;25.370;2023-04-06T03:55:46;7.93;;;4.90;;
9072;SDS011;4572;41.642;25.370;2023-04-06T03:58:11;6.60;;;4.97;;
9072;SDS011;4572;41.642;25.370;2023-04-06T04:00:37;5.40;;;4.37;;
9072;SDS011;4572;41.642;25.370;2023-04-06T04:03:02;7.00;;;5.00;;
9072;SDS011;4572;41.642;25.370;2023-04-06T04:05:28;5.00;;;4.07;;
9072;SDS011;4572;41.642;25.370;2023-04-06T04:07:54;6.47;;;4.50;;
9072;SDS011;4572;41.642;25.370;2023-04-06T04:10:20;7.23;;;5.17;;
9072;SDS011;4572;41.642;25.370;2023-04-06T04:12:45;6.73;;;4.37;;
9072;SDS011;4572;41.642;25.370;2023-04-06T04:15:11;5.63;;;4.63;;
9072;SDS011;4572;41.642;25.370;2023-04-06T04:17:36;6.33;;;4.33;;
9072;SDS011;4572;41.642;25.370;2023-04-06T04:20:02;7.33;;;4.80;;
9072;SDS011;4572;41.642;25.370;2023-04-06T04:22:27;6.10;;;5.00;;
9072;SDS011;4572;41.642;25.370;2023-04-06T04:24:53;5.87;;;4.90;;
9072;SDS011;4572;41.642;25.370;2023-04-06T04:27:18;6.20;;;5.33;;
9072;SDS011;4572;41.642;25.370;2023-04-06T04:29:44;6.70;;;4.63;;
9072;SDS011;4572;41.642;25.370;2023-04-06T04:32:10;7.87;;;4.93;;
9072;SDS011;4572;41.642;25.370;2023-04-06T04:34:36;6.23;;;4.80;;
9072;SDS011;4572;41.642;25.370;2023-04-06T04:37:05;9.40;;;5.40;;
9072;SDS011;4572;41.642;25.370;2023-04-06T04:39:30;7.20;;;5.07;;
9072;SDS011;4572;41.642;25.370;2023-04-06T04:41:56;7.53;;;5.30;;
9072;SDS011;4572;41.642;25.370;2023-04-06T04:44:21;6.63;;;5.07;;
9072;SDS011;4572;41.642;25.370;2023-04-06T04:46:47;7.07;;;5.60;;
9072;SDS011;4572;41.642;25.370;2023-04-06T04:49:12;14.23;;;8.00;;
9072;SDS011;4572;41.642;25.370;2023-04-06T04:51:38;11.83;;;7.53;;
9072;SDS011;4572;41.642;25.370;2023-04-06T04:54:03;13.80;;;8.63;;
9072;SDS011;4572;41.642;25.370;2023-04-06T04:56:29;10.53;;;6.53;;
9072;SDS011;4572;41.642;25.370;2023-04-06T04:58:54;9.30;;;6.43;;
9072;SDS011;4572;41.642;25.370;2023-04-06T05:01:21;12.10;;;8.57;;
9072;SDS011;4572;41.642;25.370;2023-04-06T05:03:47;12.00;;;7.90;;
9072;SDS011;4572;41.642;25.370;2023-04-06T05:06:12;12.10;;;6.67;;
9072;SDS011;4572;41.642;25.370;2023-04-06T05:08:38;8.13;;;5.00;;
9072;SDS011;4572;41.642;25.370;2023-04-06T05:11:03;9.27;;;5.60;;
9072;SDS011;4572;41.642;25.370;2023-04-06T05:13:29;8.60;;;5.73;;
9072;SDS011;4572;41.642;25.370;2023-04-06T05:15:55;7.63;;;5.93;;
9072;SDS011;4572;41.642;25.370;2023-04-06T05:18:21;7.13;;;4.97;;
9072;SDS011;4572;41.642;25.370;2023-04-06T05:20:46;6.67;;;5.13;;
9072;SDS011;4572;41.642;25.370;2023-04-06T05:23:12;6.67;;;5.00;;
9072;SDS011;4572;41.642;25.370;2023-04-06T05:25:38;8.53;;;5.73;;
9072;SDS011;4572;41.642;25.370;2023-04-06T05:28:03;7.83;;;5.93;;
9072;SDS011;4572;41.642;25.370;2023-04-06T05:30:29;8.17;;;5.07;;
9072;SDS011;4572;41.642;25.370;2023-04-06T05:32:55;6.20;;;4.77;;
9072;SDS011;4572;41.642;25.370;2023-04-06T05:35:20;9.70;;;5.43;;
9072;SDS011;4572;41.642;25.370;2023-04-06T05:37:46;11.37;;;6.50;;
9072;SDS011;4572;41.642;25.370;2023-04-06T05:40:11;5.27;;;4.00;;
9072;SDS011;4572;41.642;25.370;2023-04-06T05:42:41;5.83;;;4.30;;
9072;SDS011;4572;41.642;25.370;2023-04-06T05:45:07;3.87;;;3.20;;
9072;SDS011;4572;41.642;25.370;2023-04-06T05:47:34;7.10;;;4.73;;
9072;SDS011;4572;41.642;25.370;2023-04-06T05:50:00;6.47;;;4.30;;
9072;SDS011;4572;41.642;25.370;2023-04-06T05:52:26;4.33;;;3.40;;
9072;SDS011;4572;41.642;25.370;2023-04-06T05:54:51;5.83;;;3.80;;
9072;SDS011;4572;41.642;25.370;2023-04-06T05:57:17;14.33;;;5.00;;
9072;SDS011;4572;41.642;25.370;2023-04-06T05:59:43;9.30;;;6.67;;
9072;SDS011;4572;41.642;25.370;2023-04-06T06:02:08;8.97;;;5.30;;
9072;SDS011;4572;41.642;25.370;2023-04-06T06:04:34;7.60;;;4.77;;
9072;SDS011;4572;41.642;25.370;2023-04-06T06:07:00;10.87;;;6.27;;
9072;SDS011;4572;41.642;25.370;2023-04-06T06:09:25;4.13;;;2.80;;
9072;SDS011;4572;41.642;25.370;2023-04-06T06:11:51;8.30;;;4.07;;
9072;SDS011;4572;41.642;25.370;2023-04-06T06:14:16;6.83;;;4.03;;
9072;SDS011;4572;41.642;25.370;2023-04-06T06:16:42;7.57;;;5.70;;
9072;SDS011;4572;41.642;25.370;2023-04-06T06:19:08;5.90;;;4.63;;
9072;SDS011;4572;41.642;25.370;2023-04-06T06:21:34;5.27;;;4.00;;
9072;SDS011;4572;41.642;25.370;2023-04-06T06:23:59;4.57;;;2.97;;
9072;SDS011;4572;41.642;25.370;2023-04-06T06:26:25;5.17;;;3.87;;
9072;SDS011;4572;41.642;25.370;2023-04-06T06:28:51;6.90;;;3.90;;
9072;SDS011;4572;41.642;25.370;2023-04-06T06:31:16;3.20;;;2.23;;
9072;SDS011;4572;41.642;25.370;2023-04-06T06:33:43;4.67;;;4.00;;
9072;SDS011;4572;41.642;25.370;2023-04-06T06:36:09;4.30;;;3.67;;
9072;SDS011;4572;41.642;25.370;2023-04-06T06:38:34;4.50;;;3.43;;
9072;SDS011;4572;41.642;25.370;2023-04-06T06:41:00;4.77;;;3.87;;
9072;SDS011;4572;41.642;25.370;2023-04-06T06:43:25;5.63;;;3.87;;
9072;SDS011;4572;41.642;25.370;2023-04-06T06:45:51;6.03;;;4.20;;
9072;SDS011;4572;41.642;25.370;2023-04-06T06:48:17;4.93;;;4.00;;
9072;SDS011;4572;41.642;25.370;2023-04-06T06:50:42;5.80;;;4.00;;
9072;SDS011;4572;41.642;25.370;2023-04-06T06:53:07;5.17;;;3.97;;
9072;SDS011;4572;41.642;25.370;2023-04-06T06:55:33;4.83;;;3.93;;
9072;SDS011;4572;41.642;25.370;2023-04-06T06:57:58;5.63;;;3.90;;
9072;SDS011;4572;41.642;25.370;2023-04-06T07:00:24;5.10;;;3.87;;
9072;SDS011;4572;41.642;25.370;2023-04-06T07:02:50;7.47;;;3.90;;
9072;SDS011;4572;41.642;25.370;2023-04-06T07:05:15;6.77;;;3.77;;
9072;SDS011;4572;41.642;25.370;2023-04-06T07:07:41;4.13;;;3.50;;
9072;SDS011;4572;41.642;25.370;2023-04-06T07:10:07;5.93;;;4.07;;
9072;SDS011;4572;41.642;25.370;2023-04-06T07:12:33;4.23;;;3.33;;
9072;SDS011;4572;41.642;25.370;2023-04-06T07:14:58;4.43;;;3.27;;
9072;SDS011;4572;41.642;25.370;2023-04-06T07:17:24;4.10;;;3.50;;
9072;SDS011;4572;41.642;25.370;2023-04-06T07:19:49;4.13;;;3.57;;
9072;SDS011;4572;41.642;25.370;2023-04-06T07:22:15;8.33;;;3.70;;
9072;SDS011;4572;41.642;25.370;2023-04-06T07:24:40;4.90;;;3.80;;
9072;SDS011;4572;41.642;25.370;2023-04-06T07:27:06;4.13;;;3.40;;
9072;SDS011;4572;41.642;25.370;2023-04-06T07:29:32;3.90;;;3.07;;
9072;SDS011;4572;41.642;25.370;2023-04-06T07:31:57;4.30;;;3.87;;
9072;SDS011;4572;41.642;25.370;2023-04-06T07:34:23;4.03;;;3.00;;
9072;SDS011;4572;41.642;25.370;2023-04-06T07:36:49;5.70;;;2.90;;
9072;SDS011;4572;41.642;25.370;2023-04-06T07:39:14;9.83;;;3.40;;
9072;SDS011;4572;41.642;25.370;2023-04-06T07:41:40;4.10;;;3.40;;
9072;SDS011;4572;41.642;25.370;2023-04-06T07:44:06;4.10;;;3.63;;
9072;SDS011;4572;41.642;25.370;2023-04-06T07:46:31;4.37;;;3.90;;
9072;SDS011;4572;41.642;25.370;2023-04-06T07:48:57;5.40;;;4.47;;
9072;SDS011;4572;41.642;25.370;2023-04-06T07:51:24;4.50;;;3.50;;
9072;SDS011;4572;41.642;25.370;2023-04-06T07:53:50;4.13;;;3.40;;
9072;SDS011;4572;41.642;25.370;2023-04-06T07:56:16;5.13;;;4.17;;
9072;SDS011;4572;41.642;25.370;2023-04-06T07:58:42;5.37;;;3.63;;
9072;SDS011;4572;41.642;25.370;2023-04-06T08:01:07;5.40;;;3.73;;
9072;SDS011;4572;41.642;25.370;2023-04-06T08:03:34;5.87;;;4.03;;
9072;SDS011;4572;41.642;25.370;2023-04-06T08:06:00;5.70;;;3.80;;
9072;SDS011;4572;41.642;25.370;2023-04-06T08:08:25;4.27;;;3.33;;
9072;SDS011;4572;41.642;25.370;2023-04-06T08:10:51;3.43;;;3.10;;
9072;SDS011;4572;41.642;25.370;2023-04-06T08:13:16;3.47;;;2.57;;
9072;SDS011;4572;41.642;25.370;2023-04-06T08:15:42;4.33;;;3.00;;
9072;SDS011;4572;41.642;25.370;2023-04-06T08:18:08;6.43;;;3.83;;
9072;SDS011;4572;41.642;25.370;2023-04-06T08:20:34;4.87;;;4.07;;
9072;SDS011;4572;41.642;25.370;2023-04-06T08:23:00;5.00;;;3.93;;
9072;SDS011;4572;41.642;25.370;2023-04-06T08:25:25;5.50;;;4.67;;
9072;SDS011;4572;41.642;25.370;2023-04-06T08:27:51;3.60;;;3.30;;
9072;SDS011;4572;41.642;25.370;2023-04-06T08:30:16;4.73;;;3.63;;
9072;SDS011;4572;41.642;25.370;2023-04-06T08:32:44;4.40;;;3.30;;
9072;SDS011;4572;41.642;25.370;2023-04-06T08:35:10;4.57;;;3.80;;
9072;SDS011;4572;41.642;25.370;2023-04-06T08:37:35;5.53;;;4.37;;
9072;SDS011;4572;41.642;25.370;2023-04-06T08:40:01;5.07;;;4.03;;
9072;SDS011;4572;41.642;25.370;2023-04-06T08:42:28;4.60;;;3.40;;
9072;SDS011;4572;41.642;25.370;2023-04-06T08:44:54;4.90;;;3.47;;
9072;SDS011;4572;41.642;25.370;2023-04-06T08:47:20;4.43;;;3.87;;
9072;SDS011;4572;41.642;25.370;2023-04-06T08:49:46;4.33;;;3.93;;
9072;SDS011;4572;41.642;25.370;2023-04-06T08:52:12;4.87;;;4.00;;
9072;SDS011;4572;41.642;25.370;2023-04-06T08:54:37;4.37;;;3.73;;
9072;SDS011;4572;41.642;25.370;2023-04-06T08:57:04;4.67;;;3.70;;
9072;SDS011;4572;41.642;25.370;2023-04-06T08:59:31;5.03;;;3.93;;
9072;SDS011;4572;41.642;25.370;2023-04-06T09:01:57;4.90;;;3.70;;
9072;SDS011;4572;41.642;25.370;2023-04-06T09:04:23;5.13;;;3.70;;
9072;SDS011;4572;41.642;25.370;2023-04-06T09:06:48;6.53;;;4.27;;
9072;SDS011;4572;41.642;25.370;2023-04-06T09:09:15;5.20;;;4.10;;
9072;SDS011;4572;41.642;25.370;2023-04-06T09:11:50;4.80;;;3.87;;
9072;SDS011;4572;41.642;25.370;2023-04-06T09:14:16;3.23;;;2.40;;
9072;SDS011;4572;41.642;25.370;2023-04-06T09:16:42;4.33;;;3.40;;
9072;SDS011;4572;41.642;25.370;2023-04-06T09:19:10;4.07;;;3.67;;
9072;SDS011;4572;41.642;25.370;2023-04-06T09:21:37;7.13;;;4.60;;
9072;SDS011;4572;41.642;25.370;2023-04-06T09:24:05;4.03;;;3.20;;
9072;SDS011;4572;41.642;25.370;2023-04-06T09:26:32;4.57;;;3.87;;
9072;SDS011;4572;41.642;25.370;2023-04-06T09:28:59;5.23;;;3.93;;
9072;SDS011;4572;41.642;25.370;2023-04-06T09:31:29;4.83;;;4.07;;
9072;SDS011;4572;41.642;25.370;2023-04-06T09:33:57;5.83;;;4.00;;
9072;SDS011;4572;41.642;25.370;2023-04-06T09:36:33;5.90;;;4.33;;
9072;SDS011;4572;41.642;25.370;2023-04-06T09:39:03;5.60;;;4.17;;
9072;SDS011;4572;41.642;25.370;2023-04-06T09:41:30;5.47;;;4.37;;
9072;SDS011;4572;41.642;25.370;2023-04-06T09:46:28;6.77;;;3.77;;
9072;SDS011;4572;41.642;25.370;2023-04-06T09:48:57;6.77;;;4.00;;
9072;SDS011;4572;41.642;25.370;2023-04-06T09:51:23;4.73;;;3.77;;
9072;SDS011;4572;41.642;25.370;2023-04-06T09:53:52;4.03;;;3.57;;
9072;SDS011;4572;41.642;25.370;2023-04-06T09:56:20;4.50;;;3.50;;
9072;SDS011;4572;41.642;25.370;2023-04-06T09:58:48;5.10;;;3.77;;
9072;SDS011;4572;41.642;25.370;2023-04-06T10:01:15;3.87;;;3.50;;
9072;SDS011;4572;41.642;25.370;2023-04-06T10:06:21;5.33;;;3.50;;
9072;SDS011;4572;41.642;25.370;2023-04-06T10:08:49;7.10;;;4.30;;
9072;SDS011;4572;41.642;25.370;2023-04-06T10:11:15;4.43;;;2.80;;
9072;SDS011;4572;41.642;25.370;2023-04-06T10:13:41;4.37;;;3.70;;
9072;SDS011;4572;41.642;25.370;2023-04-06T10:16:08;6.93;;;4.37;;
9072;SDS011;4572;41.642;25.370;2023-04-06T10:18:33;7.90;;;5.63;;
9072;SDS011;4572;41.642;25.370;2023-04-06T10:21:11;4.40;;;3.60;;
9072;SDS011;4572;41.642;25.370;2023-04-06T10:23:43;4.70;;;3.93;;
9072;SDS011;4572;41.642;25.370;2023-04-06T10:26:20;3.43;;;2.80;;
9072;SDS011;4572;41.642;25.370;2023-04-06T10:28:47;3.90;;;3.27;;
9072;SDS011;4572;41.642;25.370;2023-04-06T10:31:14;4.47;;;3.77;;
9072;SDS011;4572;41.642;25.370;2023-04-06T10:33:40;5.30;;;3.43;;
9072;SDS011;4572;41.642;25.370;2023-04-06T10:36:25;4.93;;;4.27;;
9072;SDS011;4572;41.642;25.370;2023-04-06T10:39:04;4.00;;;3.10;;
9072;SDS011;4572;41.642;25.370;2023-04-06T10:41:43;3.80;;;3.40;;
9072;SDS011;4572;41.642;25.370;2023-04-06T10:44:20;3.20;;;2.90;;
9072;SDS011;4572;41.642;25.370;2023-04-06T10:46:53;4.13;;;3.47;;
9072;SDS011;4572;41.642;25.370;2023-04-06T10:49:20;2.90;;;2.57;;
9072;SDS011;4572;41.642;25.370;2023-04-06T10:51:50;3.63;;;3.23;;
9072;SDS011;4572;41.642;25.370;2023-04-06T10:54:16;5.27;;;3.67;;
9072;SDS011;4572;41.642;25.370;2023-04-06T10:56:42;4.07;;;3.27;;
9072;SDS011;4572;41.642;25.370;2023-04-06T10:59:07;3.60;;;3.00;;
9072;SDS011;4572;41.642;25.370;2023-04-06T11:01:33;3.23;;;2.90;;
9072;SDS011;4572;41.642;25.370;2023-04-06T11:03:58;3.80;;;2.83;;
9072;SDS011;4572;41.642;25.370;2023-04-06T11:06:25;3.77;;;3.23;;
9072;SDS011;4572;41.642;25.370;2023-04-06T11:08:52;3.20;;;2.63;;
9072;SDS011;4572;41.642;25.370;2023-04-06T11:11:19;4.07;;;3.40;;
9072;SDS011;4572;41.642;25.370;2023-04-06T11:13:50;6.53;;;3.70;;
9072;SDS011;4572;41.642;25.370;2023-04-06T11:16:18;3.87;;;3.27;;
9072;SDS011;4572;41.642;25.370;2023-04-06T11:18:55;3.90;;;2.70;;
9072;SDS011;4572;41.642;25.370;2023-04-06T11:21:41;3.13;;;2.83;;
9072;SDS011;4572;41.642;25.370;2023-04-06T11:24:09;4.87;;;3.47;;
9072;SDS011;4572;41.642;25.370;2023-04-06T11:26:37;3.20;;;2.90;;
9072;SDS011;4572;41.642;25.370;2023-04-06T11:29:03;2.70;;;2.37;;
9072;SDS011;4572;41.642;25.370;2023-04-06T11:31:29;3.67;;;2.67;;
9072;SDS011;4572;41.642;25.370;2023-04-06T11:33:56;3.33;;;2.40;;
9072;SDS011;4572;41.642;25.370;2023-04-06T11:36:22;3.53;;;2.77;;
9072;SDS011;4572;41.642;25.370;2023-04-06T11:38:47;2.67;;;2.47;;
9072;SDS011;4572;41.642;25.370;2023-04-06T11:41:13;2.70;;;2.50;;
9072;SDS011;4572;41.642;25.370;2023-04-06T11:43:38;3.47;;;2.83;;
9072;SDS011;4572;41.642;25.370;2023-04-06T11:46:11;4.10;;;2.97;;
9072;SDS011;4572;41.642;25.370;2023-04-06T11:48:45;2.90;;;2.57;;
9072;SDS011;4572;41.642;25.370;2023-04-06T11:51:11;4.43;;;3.53;;
9072;SDS011;4572;41.642;25.370;2023-04-06T11:53:46;7.20;;;4.67;;
9072;SDS011;4572;41.642;25.370;2023-04-06T11:56:21;3.00;;;2.40;;
9072;SDS011;4572;41.642;25.370;2023-04-06T11:58:48;3.03;;;2.73;;
9072;SDS011;4572;41.642;25.370;2023-04-06T12:01:13;3.93;;;3.20;;
9072;SDS011;4572;41.642;25.370;2023-04-06T12:03:40;2.57;;;2.37;;
9072;SDS011;4572;41.642;25.370;2023-04-06T12:06:05;4.47;;;3.17;;
9072;SDS011;4572;41.642;25.370;2023-04-06T12:08:31;3.70;;;3.23;;
9072;SDS011;4572;41.642;25.370;2023-04-06T12:10:56;4.47;;;3.00;;
9072;SDS011;4572;41.642;25.370;2023-04-06T12:13:22;2.50;;;2.30;;
9072;SDS011;4572;41.642;25.370;2023-04-06T12:15:48;3.43;;;2.50;;
9072;SDS011;4572;41.642;25.370;2023-04-06T12:18:14;2.93;;;2.40;;
9072;SDS011;4572;41.642;25.370;2023-04-06T12:20:40;2.80;;;2.50;;
9072;SDS011;4572;41.642;25.370;2023-04-06T12:23:05;2.47;;;2.27;;
9072;SDS011;4572;41.642;25.370;2023-04-06T12:25:31;3.17;;;2.40;;
9072;SDS011;4572;41.642;25.370;2023-04-06T12:27:56;3.77;;;2.50;;
9072;SDS011;4572;41.642;25.370;2023-04-06T12:30:22;4.53;;;3.43;;
9072;SDS011;4572;41.642;25.370;2023-04-06T12:32:48;4.77;;;2.40;;
9072;SDS011;4572;41.642;25.370;2023-04-06T12:35:13;2.90;;;2.60;;
9072;SDS011;4572;41.642;25.370;2023-04-06T12:37:40;2.50;;;2.30;;
9072;SDS011;4572;41.642;25.370;2023-04-06T12:40:07;2.90;;;2.20;;
9072;SDS011;4572;41.642;25.370;2023-04-06T12:42:35;3.27;;;2.63;;
9072;SDS011;4572;41.642;25.370;2023-04-06T12:45:01;2.60;;;2.40;;
9072;SDS011;4572;41.642;25.370;2023-04-06T12:47:27;2.80;;;2.20;;
9072;SDS011;4572;41.642;25.370;2023-04-06T12:49:53;6.17;;;2.40;;
9072;SDS011;4572;41.642;25.370;2023-04-06T12:52:19;2.17;;;1.97;;
9072;SDS011;4572;41.642;25.370;2023-04-06T12:54:44;3.50;;;2.43;;
9072;SDS011;4572;41.642;25.370;2023-04-06T12:57:10;3.17;;;2.07;;
9072;SDS011;4572;41.642;25.370;2023-04-06T12:59:35;3.50;;;2.50;;
9072;SDS011;4572;41.642;25.370;2023-04-06T13:02:02;2.37;;;2.17;;
9072;SDS011;4572;41.642;25.370;2023-04-06T13:04:28;2.53;;;2.23;;
9072;SDS011;4572;41.642;25.370;2023-04-06T13:06:54;2.80;;;2.60;;
9072;SDS011;4572;41.642;25.370;2023-04-06T13:09:19;3.13;;;2.60;;
9072;SDS011;4572;41.642;25.370;2023-04-06T13:11:45;2.60;;;2.40;;
9072;SDS011;4572;41.642;25.370;2023-04-06T13:14:11;2.40;;;2.20;;
9072;SDS011;4572;41.642;25.370;2023-04-06T13:16:36;4.40;;;2.33;;
9072;SDS011;4572;41.642;25.370;2023-04-06T13:19:02;2.20;;;1.93;;
9072;SDS011;4572;41.642;25.370;2023-04-06T13:21:28;2.97;;;2.53;;
9072;SDS011;4572;41.642;25.370;2023-04-06T13:23:53;2.40;;;2.20;;
9072;SDS011;4572;41.642;25.370;2023-04-06T13:26:19;3.77;;;2.60;;
9072;SDS011;4572;41.642;25.370;2023-04-06T13:28:45;4.73;;;2.80;;
9072;SDS011;4572;41.642;25.370;2023-04-06T13:31:10;2.93;;;2.40;;
9072;SDS011;4572;41.642;25.370;2023-04-06T13:33:36;2.57;;;2.37;;
9072;SDS011;4572;41.642;25.370;2023-04-06T13:36:02;3.30;;;2.80;;
9072;SDS011;4572;41.642;25.370;2023-04-06T13:38:28;5.57;;;2.50;;
9072;SDS011;4572;41.642;25.370;2023-04-06T13:40:54;2.40;;;2.03;;
9072;SDS011;4572;41.642;25.370;2023-04-06T13:43:20;3.37;;;2.87;;
9072;SDS011;4572;41.642;25.370;2023-04-06T13:45:52;3.37;;;2.60;;
9072;SDS011;4572;41.642;25.370;2023-04-06T13:48:20;3.13;;;2.47;;
9072;SDS011;4572;41.642;25.370;2023-04-06T13:50:46;3.50;;;2.43;;
9072;SDS011;4572;41.642;25.370;2023-04-06T13:53:12;5.37;;;2.70;;
9072;SDS011;4572;41.642;25.370;2023-04-06T13:55:37;2.60;;;2.40;;
9072;SDS011;4572;41.642;25.370;2023-04-06T13:58:03;4.40;;;2.60;;
9072;SDS011;4572;41.642;25.370;2023-04-06T14:00:28;2.80;;;2.60;;
9072;SDS011;4572;41.642;25.370;2023-04-06T14:02:54;4.43;;;2.87;;
9072;SDS011;4572;41.642;25.370;2023-04-06T14:05:23;3.60;;;2.70;;
9072;SDS011;4572;41.642;25.370;2023-04-06T14:07:49;4.80;;;2.60;;
9072;SDS011;4572;41.642;25.370;2023-04-06T14:10:15;2.30;;;2.10;;
9072;SDS011;4572;41.642;25.370;2023-04-06T14:12:44;4.73;;;2.83;;
9072;SDS011;4572;41.642;25.370;2023-04-06T14:15:11;2.40;;;2.10;;
9072;SDS011;4572;41.642;25.370;2023-04-06T14:17:37;2.73;;;2.30;;
9072;SDS011;4572;41.642;25.370;2023-04-06T14:20:03;3.17;;;2.20;;
9072;SDS011;4572;41.642;25.370;2023-04-06T14:22:31;3.10;;;2.80;;
9072;SDS011;4572;41.642;25.370;2023-04-06T14:24:56;2.83;;;2.20;;
9072;SDS011;4572;41.642;25.370;2023-04-06T14:27:22;3.60;;;2.87;;
9072;SDS011;4572;41.642;25.370;2023-04-06T14:29:49;3.43;;;2.67;;
9072;SDS011;4572;41.642;25.370;2023-04-06T14:32:39;3.67;;;3.07;;
9072;SDS011;4572;41.642;25.370;2023-04-06T14:35:05;3.43;;;3.00;;
9072;SDS011;4572;41.642;25.370;2023-04-06T14:37:30;4.87;;;3.00;;
9072;SDS011;4572;41.642;25.370;2023-04-06T14:39:56;4.70;;;3.03;;
9072;SDS011;4572;41.642;25.370;2023-04-06T14:42:21;2.90;;;2.33;;
9072;SDS011;4572;41.642;25.370;2023-04-06T14:44:47;5.07;;;2.80;;
9072;SDS011;4572;41.642;25.370;2023-04-06T14:47:13;3.57;;;2.70;;
9072;SDS011;4572;41.642;25.370;2023-04-06T14:49:45;3.27;;;2.67;;
9072;SDS011;4572;41.642;25.370;2023-04-06T14:52:12;2.87;;;2.50;;
9072;SDS011;4572;41.642;25.370;2023-04-06T14:54:38;3.00;;;2.53;;
9072;SDS011;4572;41.642;25.370;2023-04-06T14:57:03;3.30;;;2.80;;
9072;SDS011;4572;41.642;25.370;2023-04-06T14:59:29;3.90;;;3.43;;